Time;durP1;ratioP1;P1;durP2;ratioP2;P2;SDS_P1;SDS_P2;PMS_P1;PMS_P2;Temp;Humidity;BMP_temperature;BMP_pressure;BME280_temperature;BME280_humidity;BME280_pressure;Samples;Min_cycle;Max_cycle;Signal;HPM_P1;HPM_P2
2022/08/26 00:00:38;;;;;;;;;3.00;2.33;;;;;23.70;56.88;101229.59;5037269;28;45265;-61
2022/08/26 00:03:04;;;;;;;;;4.67;4.67;;;;;23.65;56.71;101238.41;5037212;28;45497;-62
2022/08/26 00:05:29;;;;;;;;;4.67;4.67;;;;;23.60;56.87;101213.78;5036905;28;45773;-62
2022/08/26 00:07:56;;;;;;;;;4.00;4.00;;;;;23.66;56.98;101212.94;5036896;28;45345;-62
2022/08/26 00:10:21;;;;;;;;;4.33;4.00;;;;;23.75;56.57;101224.34;5036918;28;45546;-63
2022/08/26 00:12:47;;;;;;;;;5.33;4.00;;;;;23.62;56.73;101227.97;5037015;28;45283;-63
2022/08/26 00:15:16;;;;;;;;;4.00;4.00;;;;;23.70;57.17;101237.75;5036790;28;46832;-63
2022/08/26 00:17:42;;;;;;;;;4.00;2.67;;;;;23.38;57.05;101188.81;5036755;28;45441;-61
2022/08/26 00:20:09;;;;;;;;;2.67;2.67;;;;;23.74;56.58;101236.25;5035489;28;45310;-62
2022/08/26 00:22:35;;;;;;;;;4.00;4.00;;;;;23.51;57.15;101209.63;5036817;28;45367;-62
2022/08/26 00:25:00;;;;;;;;;3.67;3.67;;;;;23.62;57.06;101238.81;5036409;28;45544;-62
2022/08/26 00:27:25;;;;;;;;;5.67;4.00;;;;;23.62;57.49;101242.38;5036551;28;45415;-61
2022/08/26 00:29:51;;;;;;;;;5.00;3.67;;;;;23.59;57.60;101250.13;5036794;28;45458;-62
2022/08/26 00:32:16;;;;;;;;;5.33;5.33;;;;;23.53;57.68;101242.81;5036849;28;45385;-63
2022/08/26 00:34:41;;;;;;;;;4.33;4.33;;;;;23.04;57.72;101176.50;5035351;28;46354;-63
2022/08/26 00:37:07;;;;;;;;;7.00;6.00;;;;;22.82;58.57;101156.97;5036463;28;45245;-62
2022/08/26 00:39:32;;;;;;;;;8.00;5.00;;;;;23.37;58.31;101241.44;5035243;28;45828;-62
2022/08/26 00:41:57;;;;;;;;;4.67;4.33;;;;;23.35;58.28;101236.22;5036836;28;45300;-62
2022/08/26 00:44:23;;;;;;;;;5.00;5.00;;;;;23.33;58.45;101246.47;5036341;28;46577;-62
2022/08/26 00:46:53;;;;;;;;;6.67;5.00;;;;;23.35;58.35;101254.38;5036484;28;45242;-61
2022/08/26 00:49:29;;;;;;;;;6.00;6.00;;;;;23.22;58.58;101232.72;5036176;28;45230;-61
2022/08/26 00:51:59;;;;;;;;;6.00;6.00;;;;;23.30;58.63;101246.06;5036444;28;45537;-63
2022/08/26 00:54:29;;;;;;;;;4.00;3.00;;;;;23.41;58.45;101263.53;5036290;28;45644;-61
2022/08/26 00:57:01;;;;;;;;;4.67;4.67;;;;;23.44;58.49;101249.56;5036277;28;45577;-62
2022/08/26 00:59:28;;;;;;;;;5.00;4.00;;;;;23.48;58.32;101257.03;5035104;28;45202;-62
2022/08/26 01:01:56;;;;;;;;;4.33;3.67;;;;;22.89;58.32;101159.66;5035134;28;45410;-62
2022/08/26 01:04:22;;;;;;;;;5.67;5.67;;;;;23.46;57.82;101233.91;5038375;28;45808;-61
2022/08/26 01:06:51;;;;;;;;;7.67;7.00;;;;;23.49;58.04;101245.13;5039470;28;45522;-62
2022/08/26 01:09:18;;;;;;;;;6.00;5.00;;;;;23.42;58.41;101238.06;5039786;28;45439;-62
2022/08/26 01:11:44;;;;;;;;;6.67;6.67;;;;;23.51;58.26;101250.34;5039737;28;45489;-61
2022/08/26 01:14:12;;;;;;;;;6.00;4.67;;;;;23.31;58.17;101221.44;5039516;28;45841;-62
2022/08/26 01:16:38;;;;;;;;;4.67;4.67;;;;;23.34;58.39;101248.13;5038226;28;45565;-62
2022/08/26 01:19:16;;;;;;;;;6.67;6.67;;;;;23.30;58.33;101225.19;5039608;28;45301;-62
2022/08/26 01:21:48;;;;;;;;;5.33;5.33;;;;;23.38;58.43;101232.25;5039794;28;45494;-61
2022/08/26 01:24:13;;;;;;;;;4.00;4.00;;;;;23.32;58.41;101228.53;5039413;28;46976;-62
2022/08/26 01:26:42;;;;;;;;;5.00;5.00;;;;;23.48;58.34;101256.22;5039101;28;45379;-63
2022/08/26 01:29:12;;;;;;;;;7.00;7.00;;;;;23.44;58.17;101252.28;5039059;28;45474;-63
2022/08/26 01:31:43;;;;;;;;;11.00;5.00;;;;;23.32;58.34;101250.22;5039092;28;45502;-61
2022/08/26 01:34:19;;;;;;;;;7.00;7.00;;;;;23.26;58.32;101244.84;5038692;28;46201;-63
2022/08/26 01:36:45;;;;;;;;;10.00;8.67;;;;;23.25;59.08;101241.28;5038596;28;46505;-62
2022/08/26 01:39:10;;;;;;;;;6.67;5.00;;;;;23.20;58.97;101241.09;5038845;28;45393;-62
2022/08/26 01:41:38;;;;;;;;;6.33;6.33;;;;;23.12;59.12;101221.53;5039131;28;45376;-63
2022/08/26 01:44:06;;;;;;;;;9.33;8.67;;;;;23.11;59.11;101230.72;5038606;28;46277;-62
2022/08/26 01:46:33;;;;;;;;;8.00;6.33;;;;;22.78;58.72;101178.22;5037536;28;45423;-62
2022/08/26 01:49:01;;;;;;;;;6.67;6.67;;;;;22.64;59.21;101163.06;5038671;28;45308;-62
2022/08/26 01:51:28;;;;;;;;;11.00;9.67;;;;;22.80;59.77;101201.56;5039079;28;45611;-62
2022/08/26 01:53:54;;;;;;;;;5.00;5.00;;;;;22.93;59.82;101223.25;5038756;28;46724;-62
2022/08/26 01:56:22;;;;;;;;;8.67;7.33;;;;;23.04;59.41;101233.44;5038947;28;45284;-62
2022/08/26 01:58:52;;;;;;;;;8.67;8.67;;;;;22.95;59.85;101235.56;5038976;28;45442;-62
2022/08/26 02:01:20;;;;;;;;;11.33;10.67;;;;;23.11;59.67;101258.66;5039076;28;45529;-62
2022/08/26 02:03:57;;;;;;;;;9.67;9.33;;;;;23.14;59.74;101258.22;5038674;28;46569;-62
2022/08/26 02:06:23;;;;;;;;;8.33;7.67;;;;;23.14;59.47;101251.97;5038687;28;45226;-62
2022/08/26 02:08:53;;;;;;;;;10.33;10.33;;;;;23.03;59.52;101240.75;5038609;28;45311;-62
2022/08/26 02:11:18;;;;;;;;;12.67;12.67;;;;;23.10;59.50;101267.84;5038647;28;45520;-62
2022/08/26 02:13:48;;;;;;;;;10.33;9.00;;;;;22.95;59.71;101254.53;5038002;28;47348;-62
2022/08/26 02:16:23;;;;;;;;;10.00;9.33;;;;;22.99;59.86;101265.78;5037496;28;45257;-62
2022/08/26 02:18:50;;;;;;;;;15.33;14.00;;;;;22.62;60.27;101199.53;5038761;28;45352;-62
2022/08/26 02:21:16;;;;;;;;;13.00;12.00;;;;;22.91;60.14;101274.16;5037440;28;45292;-62
2022/08/26 02:23:41;;;;;;;;;13.67;11.33;;;;;22.83;60.35;101253.53;5038162;28;46500;-62
2022/08/26 02:26:11;;;;;;;;;11.00;10.00;;;;;22.75;59.81;101245.59;5038233;28;45383;-62
2022/08/26 02:29:02;;;;;;;;;16.33;15.00;;;;;22.49;60.26;101188.72;5053745;28;45350;-61
2022/08/26 02:31:28;;;;;;;;;14.00;13.33;;;;;22.75;59.75;101237.44;5038552;28;45320;-62
2022/08/26 02:33:53;;;;;;;;;13.67;11.33;;;;;22.74;60.14;101247.47;5053596;28;48491;-64
2022/08/26 02:36:20;;;;;;;;;12.33;12.33;;;;;22.75;60.46;101268.09;5038336;28;45263;-62
2022/08/26 02:38:46;;;;;;;;;12.67;12.67;;;;;22.62;60.33;101243.72;5038243;28;45507;-61
2022/08/26 02:41:11;;;;;;;;;14.67;12.33;;;;;22.77;60.81;101268.72;5036910;28;45514;-61
2022/08/26 02:43:36;;;;;;;;;10.33;10.33;;;;;22.66;60.54;101236.84;5038034;28;46854;-61
2022/08/26 02:46:02;;;;;;;;;12.33;11.00;;;;;22.88;60.36;101269.16;5038259;28;45147;-61
2022/08/26 02:48:27;;;;;;;;;13.33;12.33;;;;;22.26;60.17;101179.19;5038002;28;45252;-62
2022/08/26 02:50:52;;;;;;;;;18.33;13.33;;;;;22.84;60.01;101257.09;5038148;28;45454;-62
2022/08/26 02:53:19;;;;;;;;;15.33;13.00;;;;;22.86;60.08;101271.25;5036693;28;47156;-63
2022/08/26 02:55:48;;;;;;;;;14.67;12.33;;;;;22.73;60.19;101248.50;5037946;28;45470;-62
2022/08/26 02:58:14;;;;;;;;;13.33;13.33;;;;;22.83;60.41;101266.25;5037969;28;45535;-61
2022/08/26 03:00:39;;;;;;;;;14.67;13.67;;;;;22.82;60.20;101264.56;5038146;28;45288;-62
2022/08/26 03:03:05;;;;;;;;;15.67;15.67;;;;;22.75;60.68;101265.38;5037623;28;45787;-62
2022/08/26 03:05:30;;;;;;;;;14.33;14.00;;;;;22.78;60.80;101275.81;5037468;28;45431;-61
2022/08/26 03:07:55;;;;;;;;;11.67;11.67;;;;;22.78;60.37;101264.13;5037938;28;45326;-62
2022/08/26 03:10:21;;;;;;;;;14.33;14.33;;;;;22.75;60.34;101267.25;5037687;28;45257;-62
2022/08/26 03:12:47;;;;;;;;;14.33;13.00;;;;;22.69;60.62;101262.69;5037200;28;45928;-62
2022/08/26 03:15:15;;;;;;;;;15.67;14.33;;;;;22.61;60.82;101252.06;5036000;28;45953;-62
2022/08/26 03:17:40;;;;;;;;;17.67;16.67;;;;;22.66;60.82;101261.25;5037841;28;45532;-61
2022/08/26 03:20:09;;;;;;;;;17.67;16.00;;;;;22.52;60.61;101251.47;5037721;28;45517;-61
2022/08/26 03:22:36;;;;;;;;;14.33;14.33;;;;;22.52;60.86;101242.50;5037591;28;46949;-63
2022/08/26 03:25:05;;;;;;;;;18.33;16.33;;;;;22.56;60.92;101250.00;5036195;28;45539;-61
2022/08/26 03:27:30;;;;;;;;;18.67;17.33;;;;;22.52;61.39;101256.88;5037560;28;45481;-62
2022/08/26 03:32:39;;;;;;;;;20.33;16.67;;;;;22.52;61.41;101265.00;5037339;28;45320;-62
2022/08/26 03:35:05;;;;;;;;;17.00;16.00;;;;;22.54;61.54;101272.94;5037259;28;45372;-62
2022/08/26 03:37:30;;;;;;;;;15.00;14.33;;;;;22.54;61.37;101267.50;5037636;28;45325;-61
2022/08/26 03:39:56;;;;;;;;;15.67;13.33;;;;;22.51;61.35;101265.22;5037621;28;45255;-63
2022/08/26 03:42:22;;;;;;;;;16.33;15.33;;;;;21.84;61.49;101153.34;5037377;28;46429;-62
2022/08/26 03:44:47;;;;;;;;;17.00;16.33;;;;;22.34;61.80;101224.19;5037050;28;45537;-63
2022/08/26 03:47:13;;;;;;;;;15.67;13.33;;;;;22.53;61.45;101263.97;5037160;28;45417;-63
2022/08/26 03:49:38;;;;;;;;;16.67;16.67;;;;;22.48;61.80;101265.66;5037119;28;45299;-63
2022/08/26 03:52:04;;;;;;;;;18.67;16.00;;;;;22.42;62.13;101256.44;5037133;28;46247;-63
2022/08/26 03:54:30;;;;;;;;;24.00;19.00;;;;;22.47;61.95;101256.69;5037261;28;45369;-63
2022/08/26 03:56:55;;;;;;;;;19.00;16.67;;;;;22.44;61.77;101270.66;5036501;28;45235;-63
2022/08/26 03:59:20;;;;;;;;;16.00;13.33;;;;;21.94;61.90;101167.28;5037210;28;45416;-62
2022/08/26 04:01:46;;;;;;;;;15.33;13.00;;;;;22.44;61.51;101238.16;5036696;28;46744;-61
2022/08/26 04:04:11;;;;;;;;;15.67;15.00;;;;;22.59;61.63;101270.41;5037176;28;45458;-62
2022/08/26 04:06:41;;;;;;;;;20.00;15.00;;;;;22.64;61.34;101262.50;5035472;28;45308;-62
2022/08/26 04:09:10;;;;;;;;;20.00;17.33;;;;;22.65;61.72;101259.59;5036960;28;45246;-62
2022/08/26 04:11:38;;;;;;;;;20.67;17.00;;;;;22.59;61.86;101260.41;5036660;28;46562;-62
2022/08/26 04:14:08;;;;;;;;;16.67;14.33;;;;;22.58;61.53;101258.75;5036256;28;45466;-62
2022/08/26 04:16:34;;;;;;;;;18.33;16.33;;;;;22.65;61.66;101259.59;5036666;28;45494;-63
2022/08/26 04:18:59;;;;;;;;;18.00;17.00;;;;;22.69;61.55;101255.41;5036504;28;45443;-61
2022/08/26 04:21:26;;;;;;;;;13.33;12.67;;;;;22.64;61.88;101257.91;5037004;28;45373;-62
2022/08/26 04:23:51;;;;;;;;;17.33;16.33;;;;;22.45;61.88;101224.38;5036504;28;45409;-62
2022/08/26 04:26:19;;;;;;;;;17.00;16.00;;;;;22.72;61.36;101264.97;5036710;28;45289;-63
2022/08/26 04:28:45;;;;;;;;;16.00;16.00;;;;;22.17;61.50;101181.25;5037023;28;45482;-63
2022/08/26 04:31:15;;;;;;;;;20.67;17.33;;;;;22.70;61.34;101262.50;5036342;28;47218;-63
2022/08/26 04:33:41;;;;;;;;;17.00;15.00;;;;;22.57;61.13;101243.53;5036538;28;45236;-61
2022/08/26 04:36:07;;;;;;;;;15.33;14.00;;;;;22.68;61.41;101267.28;5036516;28;45461;-62
2022/08/26 04:38:33;;;;;;;;;18.00;16.33;;;;;22.68;61.33;101261.88;5037797;28;45465;-62
2022/08/26 04:40:59;;;;;;;;;17.33;16.33;;;;;22.48;61.41;101230.41;5039834;28;47324;-65
2022/08/26 04:43:29;;;;;;;;;20.33;18.67;;;;;22.66;61.11;101272.09;5039952;28;45357;-62
2022/08/26 04:45:56;;;;;;;;;20.00;17.33;;;;;22.31;61.41;101202.94;5040047;28;45481;-62
2022/08/26 04:48:21;;;;;;;;;20.33;18.33;;;;;22.66;61.30;101255.81;5038679;28;45221;-61
2022/08/26 04:50:46;;;;;;;;;21.67;20.33;;;;;22.69;61.43;101274.38;5037948;28;51107;-62
2022/08/26 04:53:12;;;;;;;;;10.33;10.33;;;;;22.71;61.21;101276.88;5039612;28;45489;-62
2022/08/26 04:55:38;;;;;;;;;16.00;14.67;;;;;22.64;61.88;101293.16;5039694;28;45418;-63
2022/08/26 04:58:04;;;;;;;;;19.33;18.00;;;;;22.65;61.91;101292.09;5040231;28;45470;-61
2022/08/26 05:00:29;;;;;;;;;17.67;17.00;;;;;22.72;61.41;101282.09;5039546;28;47077;-62
2022/08/26 05:02:54;;;;;;;;;23.33;21.67;;;;;22.80;61.34;101283.72;5039583;28;45229;-62
2022/08/26 05:05:20;;;;;;;;;19.33;16.67;;;;;22.81;61.54;101289.97;5039825;28;45396;-65
2022/08/26 05:07:45;;;;;;;;;22.67;19.00;;;;;22.59;61.17;101273.97;5039712;28;45321;-62
2022/08/26 05:10:10;;;;;;;;;24.00;21.00;;;;;22.78;61.33;101289.34;5039259;28;47432;-61
2022/08/26 05:12:36;;;;;;;;;28.00;23.33;;;;;22.28;61.34;101222.31;5039485;28;45285;-62
2022/08/26 05:15:01;;;;;;;;;20.67;20.00;;;;;22.69;61.67;101295.22;5039895;28;45324;-61
2022/08/26 05:17:27;;;;;;;;;22.00;19.00;;;;;22.66;61.33;101292.94;5039630;28;45414;-62
2022/08/26 05:19:52;;;;;;;;;19.67;19.67;;;;;22.67;61.27;101289.19;5037979;28;47270;-61
2022/08/26 05:22:18;;;;;;;;;18.33;18.33;;;;;22.61;61.30;101295.41;5038241;28;45307;-62
2022/08/26 05:24:45;;;;;;;;;21.67;20.33;;;;;22.62;61.82;101314.19;5039414;28;45461;-63
2022/08/26 05:27:12;;;;;;;;;24.33;21.00;;;;;22.50;61.89;101299.63;5039511;28;45134;-62
2022/08/26 05:29:38;;;;;;;;;23.00;21.33;;;;;21.87;61.85;101212.47;5037762;28;47714;-62
2022/08/26 05:32:04;;;;;;;;;23.33;21.00;;;;;22.32;62.48;101318.38;5037807;28;45290;-62
2022/08/26 05:34:29;;;;;;;;;17.67;17.67;;;;;22.34;62.40;101313.56;5038994;28;45335;-62
2022/08/26 05:36:54;;;;;;;;;20.00;16.33;;;;;22.23;62.12;101281.69;5039292;28;45546;-62
2022/08/26 05:39:22;;;;;;;;;19.00;19.00;;;;;22.35;62.20;101294.41;5037665;28;46566;-63
2022/08/26 05:41:47;;;;;;;;;22.67;21.00;;;;;22.50;61.96;101318.59;5038941;28;45400;-62
2022/08/26 05:44:14;;;;;;;;;21.00;19.67;;;;;22.25;61.76;101285.03;5038816;28;45423;-62
2022/08/26 05:46:40;;;;;;;;;22.00;18.33;;;;;22.48;61.98;101317.13;5039078;28;45347;-63
2022/08/26 05:49:06;;;;;;;;;20.33;17.67;;;;;22.52;62.31;101321.91;5038007;28;47537;-63
2022/08/26 05:51:33;;;;;;;;;28.33;22.67;;;;;22.64;61.71;101328.38;5038128;28;45434;-61
2022/08/26 05:54:01;;;;;;;;;19.67;19.67;;;;;22.59;61.39;101311.06;5038752;28;45221;-63
2022/08/26 05:56:27;;;;;;;;;20.33;20.33;;;;;22.47;61.69;101297.34;5039215;28;45319;-63
2022/08/26 05:58:54;;;;;;;;;21.33;21.00;;;;;22.71;61.60;101334.63;5038541;28;47068;-63
2022/08/26 06:01:24;;;;;;;;;27.00;23.33;;;;;22.74;61.18;101328.78;5038645;28;45458;-62
2022/08/26 06:03:51;;;;;;;;;21.67;18.67;;;;;22.63;61.01;101302.31;5038785;28;45478;-64
2022/08/26 06:06:22;;;;;;;;;20.67;20.33;;;;;22.86;60.68;101339.88;5038815;28;45533;-63
2022/08/26 06:08:49;;;;;;;;;20.67;19.33;;;;;22.78;61.07;101329.19;5038223;28;45268;-63
2022/08/26 06:11:17;;;;;;;;;30.00;21.67;;;;;22.38;60.85;101255.22;5038723;28;45289;-62
2022/08/26 06:13:43;;;;;;;;;20.00;19.00;;;;;22.80;60.89;101337.13;5038571;28;45403;-63
2022/08/26 06:16:12;;;;;;;;;24.67;20.00;;;;;22.50;61.65;101321.28;5038773;28;45541;-61
2022/08/26 06:18:40;;;;;;;;;19.00;17.33;;;;;22.27;62.20;101329.00;5038596;28;45485;-63
2022/08/26 06:21:24;;;;;;;;;21.67;21.00;;;;;22.24;62.87;101332.97;5038601;28;45334;-63
2022/08/26 06:26:37;;;;;;;;;22.33;22.33;;;;;22.24;62.52;101340.25;5051831;28;45404;-63
2022/08/26 06:29:04;;;;;;;;;17.33;16.33;;;;;22.05;62.58;101312.94;5038117;28;45406;-62
2022/08/26 06:31:32;;;;;;;;;22.67;19.67;;;;;22.14;62.51;101335.22;5038057;28;45335;-62
2022/08/26 06:33:57;;;;;;;;;13.33;13.33;;;;;21.99;63.04;101335.34;5038299;28;45482;-64
2022/08/26 06:36:26;;;;;;;;;18.67;18.00;;;;;21.37;63.18;101249.81;5038362;28;45577;-63
2022/08/26 06:38:54;;;;;;;;;18.00;17.00;;;;;21.79;63.28;101337.16;5037969;28;45806;-62
2022/08/26 06:41:21;;;;;;;;;14.33;14.33;;;;;21.70;62.82;101327.56;5037977;28;45398;-64
2022/08/26 06:43:47;;;;;;;;;20.00;15.67;;;;;21.81;62.97;101338.63;5037847;28;45245;-62
2022/08/26 06:46:16;;;;;;;;;14.67;14.67;;;;;21.87;63.06;101334.28;5038583;28;45241;-62
2022/08/26 06:48:41;;;;;;;;;16.67;16.33;;;;;21.02;63.19;101250.88;5037591;28;46080;-64
2022/08/26 06:51:16;;;;;;;;;19.33;16.00;;;;;21.50;63.04;101324.78;5037952;28;45341;-63
2022/08/26 06:53:45;;;;;;;;;19.67;16.33;;;;;21.53;63.19;101341.44;5038151;28;45310;-62
2022/08/26 06:56:12;;;;;;;;;23.33;21.67;;;;;21.35;63.48;101318.69;5037950;28;45230;-63
2022/08/26 06:58:39;;;;;;;;;21.33;18.67;;;;;21.66;63.20;101351.50;5037456;28;46930;-64
2022/08/26 07:01:13;;;;;;;;;23.00;21.33;;;;;21.81;62.30;101311.56;5037378;28;45485;-63
2022/08/26 07:03:38;;;;;;;;;18.67;13.33;;;;;22.37;61.42;101335.66;5037925;28;45198;-63
2022/08/26 07:06:04;;;;;;;;;18.67;16.00;;;;;22.80;60.10;101345.25;5037689;28;45542;-63
2022/08/26 07:08:30;;;;;;;;;14.33;13.33;;;;;22.79;58.12;101263.09;5037348;28;46412;-62
2022/08/26 07:10:55;;;;;;;;;17.00;17.00;;;;;23.57;57.09;101329.06;5052699;28;45237;-65
2022/08/26 07:13:22;;;;;;;;;19.33;17.33;;;;;24.03;55.68;101321.69;5019777;28;45379;-64
2022/08/26 07:15:47;;;;;;;;;17.33;15.67;;;;;24.28;54.99;101338.91;5036855;28;45503;-64
2022/08/26 07:18:13;;;;;;;;;16.00;13.67;;;;;24.41;54.48;101346.97;5037587;28;46078;-64
2022/08/26 07:20:40;;;;;;;;;14.67;14.67;;;;;24.41;54.51;101327.94;5037718;28;45662;-64
2022/08/26 07:23:07;;;;;;;;;22.00;20.33;;;;;24.48;54.42;101328.75;5037450;28;45474;-63
2022/08/26 07:25:33;;;;;;;;;17.67;16.00;;;;;24.67;53.70;101335.06;5037951;28;45185;-63
2022/08/26 07:27:58;;;;;;;;;15.67;15.33;;;;;24.63;53.05;101330.28;5037205;28;46447;-64
2022/08/26 07:30:24;;;;;;;;;16.67;16.67;;;;;24.56;53.56;101331.19;5037374;28;45145;-64
2022/08/26 07:32:49;;;;;;;;;13.67;13.33;;;;;24.61;53.39;101351.41;5037415;28;45482;-64
2022/08/26 07:35:15;;;;;;;;;16.33;16.33;;;;;24.18;53.59;101289.63;5037805;28;45462;-62
2022/08/26 07:37:41;;;;;;;;;19.00;15.33;;;;;24.22;53.96;101318.84;5037125;28;46689;-62
2022/08/26 07:40:08;;;;;;;;;20.67;18.67;;;;;24.06;53.92;101283.25;5036084;28;45631;-63
2022/08/26 07:42:33;;;;;;;;;19.00;17.33;;;;;24.51;53.90;101355.47;5037430;28;45432;-64
2022/08/26 07:44:58;;;;;;;;;17.33;15.00;;;;;24.19;53.41;101286.69;5037539;28;45455;-64
2022/08/26 07:47:24;;;;;;;;;18.33;16.67;;;;;24.59;52.68;101343.50;5037067;28;45946;-63
2022/08/26 07:49:49;;;;;;;;;12.00;12.00;;;;;24.69;53.00;101334.84;5036942;28;45364;-63
2022/08/26 07:52:15;;;;;;;;;16.00;16.00;;;;;24.71;52.35;101327.28;5035928;28;45339;-63
2022/08/26 07:54:40;;;;;;;;;15.00;13.67;;;;;24.90;52.32;101339.88;5037473;28;45495;-62
2022/08/26 07:57:05;;;;;;;;;16.00;15.67;;;;;25.05;51.57;101337.66;5036912;28;46373;-63
2022/08/26 07:59:31;;;;;;;;;14.00;12.33;;;;;25.13;50.87;101345.53;5037166;28;45337;-63
2022/08/26 08:01:58;;;;;;;;;12.67;12.33;;;;;25.32;50.84;101342.81;5037065;28;45269;-63
2022/08/26 08:04:24;;;;;;;;;15.67;15.67;;;;;25.52;50.16;101342.59;5036891;28;45233;-62
2022/08/26 08:06:49;;;;;;;;;12.33;11.00;;;;;25.66;50.14;101350.38;5036539;28;46825;-63
2022/08/26 08:09:15;;;;;;;;;12.00;12.00;;;;;25.80;49.52;101328.41;5036376;28;45170;-62
2022/08/26 08:11:40;;;;;;;;;14.33;14.33;;;;;25.97;48.45;101337.59;5036949;28;45285;-64
2022/08/26 08:14:07;;;;;;;;;11.67;11.67;;;;;26.39;48.39;101349.38;5036048;28;45639;-64
2022/08/26 08:16:32;;;;;;;;;15.67;13.67;;;;;26.44;47.56;101348.69;5036456;28;46771;-63
2022/08/26 08:18:58;;;;;;;;;14.00;14.00;;;;;25.99;47.49;101284.53;5036346;28;45494;-64
2022/08/26 08:21:24;;;;;;;;;13.00;13.00;;;;;26.11;47.65;101321.91;5036730;28;45414;-63
2022/08/26 08:23:54;;;;;;;;;20.67;18.67;;;;;26.09;47.85;101335.75;5036598;28;45531;-63
2022/08/26 08:26:21;;;;;;;;;16.67;14.00;;;;;27.01;46.78;101348.97;5036056;28;46282;-64
2022/08/26 08:28:47;;;;;;;;;10.67;10.67;;;;;27.22;45.14;101329.25;5036169;28;45352;-64
2022/08/26 08:31:21;;;;;;;;;17.00;14.67;;;;;27.34;44.64;101330.06;5036470;28;45774;-63
2022/08/26 08:33:46;;;;;;;;;18.00;14.67;;;;;27.23;45.00;101341.84;5036567;28;45499;-64
2022/08/26 08:36:14;;;;;;;;;13.67;13.67;;;;;27.17;44.19;101329.97;5036515;28;47343;-62
2022/08/26 08:38:39;;;;;;;;;11.67;11.67;;;;;26.58;45.03;101274.59;5036521;28;45390;-63
2022/08/26 08:41:12;;;;;;;;;8.33;8.33;;;;;27.20;44.91;101345.03;5036563;28;45267;-64
2022/08/26 08:43:41;;;;;;;;;11.33;10.00;;;;;27.32;43.97;101266.69;5035401;28;45483;-63
2022/08/26 08:46:11;;;;;;;;;13.00;11.67;;;;;28.52;42.71;101323.03;5051837;28;48287;-63
2022/08/26 08:48:45;;;;;;;;;14.00;14.00;;;;;28.82;41.83;101344.56;5036019;28;45341;-63
2022/08/26 08:51:19;;;;;;;;;15.33;14.33;;;;;28.95;41.61;101338.78;5034950;28;45478;-64
2022/08/26 08:53:48;;;;;;;;;19.33;16.33;;;;;28.93;41.55;101343.69;5035148;28;45489;-62
2022/08/26 08:56:25;;;;;;;;;14.67;14.67;;;;;28.71;42.39;101338.13;5036150;28;45789;-64
2022/08/26 08:59:12;;;;;;;;;21.00;19.00;;;;;28.44;42.50;101339.88;5036241;28;45230;-64
2022/08/26 09:01:50;;;;;;;;;15.67;15.67;;;;;28.11;42.87;101344.19;5036186;28;45332;-64
2022/08/26 09:04:46;;;;;;;;;15.33;15.00;;;;;27.74;43.21;101340.19;5036447;28;45166;-64
2022/08/26 09:07:35;;;;;;;;;15.00;12.67;;;;;27.39;43.84;101332.91;5035954;28;46460;-64
2022/08/26 09:10:06;;;;;;;;;11.00;11.00;;;;;26.92;44.20;101272.09;5035953;28;45351;-64
2022/08/26 09:12:33;;;;;;;;;10.00;10.00;;;;;26.96;43.67;101268.63;5036137;28;45328;-64
2022/08/26 09:15:17;;;;;;;;;13.00;11.00;;;;;27.53;43.71;101328.00;5036226;28;45517;-63
2022/08/26 09:18:29;;;;;;;;;10.67;10.67;;;;;27.86;42.66;101336.34;5034496;28;47654;-62
2022/08/26 09:21:08;;;;;;;;;10.33;10.00;;;;;27.85;41.64;101304.66;5027290;28;45459;-63
2022/08/26 09:23:37;;;;;;;;;11.00;10.00;;;;;28.12;41.17;101340.38;5034602;28;45307;-64
2022/08/26 09:26:26;;;;;;;;;11.00;11.00;;;;;28.07;41.53;101337.56;5039063;28;45336;-65
2022/08/26 09:28:58;;;;;;;;;11.00;11.00;;;;;27.79;41.38;101250.13;5039083;28;47157;-63
2022/08/26 09:31:41;;;;;;;;;10.33;9.33;;;;;28.36;40.81;101332.91;5037627;28;45272;-64
2022/08/26 09:34:23;;;;;;;;;12.00;11.00;;;;;28.16;41.43;101327.88;5037914;28;45269;-63
2022/08/26 09:36:50;;;;;;;;;11.33;11.00;;;;;28.06;41.63;101335.91;5054752;28;45527;-62
2022/08/26 09:39:36;;;;;;;;;10.33;10.33;;;;;27.98;42.02;101324.53;5039458;28;46407;-62
2022/08/26 09:42:09;;;;;;;;;17.33;13.33;;;;;28.11;41.39;101325.06;5038778;28;45233;-63
2022/08/26 09:44:54;;;;;;;;;10.00;10.00;;;;;28.27;40.80;101330.84;5035205;28;45316;-64
2022/08/26 09:47:30;;;;;;;;;8.67;8.00;;;;;28.27;40.00;101330.84;5018987;28;45371;-64
2022/08/26 09:50:08;;;;;;;;;11.33;11.00;;;;;28.00;41.04;101334.13;5022294;28;45555;-64
2022/08/26 09:52:34;;;;;;;;;10.00;10.00;;;;;27.52;41.59;101278.00;5018824;28;45460;-64
2022/08/26 09:55:21;;;;;;;;;14.00;13.00;;;;;27.75;41.99;101315.38;5019859;28;45435;-65
2022/08/26 09:57:53;;;;;;;;;8.67;8.67;;;;;27.69;41.36;101319.09;5031731;28;45473;-65
2022/08/26 10:00:56;;;;;;;;;12.00;12.00;;;;;27.88;41.92;101328.75;5030180;28;46851;-64
2022/08/26 10:03:27;;;;;;;;;13.67;12.33;;;;;27.96;41.84;101322.03;5027885;28;45494;-64
2022/08/26 10:06:05;;;;;;;;;15.00;13.67;;;;;28.68;40.73;101324.94;5018835;28;45313;-63
2022/08/26 10:08:32;;;;;;;;;11.00;11.00;;;;;29.75;38.65;101317.38;5028871;28;45351;-64
2022/08/26 10:11:00;;;;;;;;;12.00;11.33;;;;;29.71;37.31;101262.25;5038175;28;47434;-65
2022/08/26 10:13:36;;;;;;;;;10.00;9.33;;;;;29.80;37.34;101329.19;5038653;28;45245;-64
2022/08/26 10:16:19;;;;;;;;;10.33;10.33;;;;;29.39;37.56;101322.41;5038572;28;45384;-63
2022/08/26 10:18:53;;;;;;;;;13.33;10.33;;;;;29.48;37.68;101318.16;5038381;28;45434;-64
2022/08/26 10:21:26;;;;;;;;;13.67;12.33;;;;;29.49;37.60;101308.88;5038255;28;46626;-63
2022/08/26 10:23:56;;;;;;;;;10.00;10.00;;;;;29.50;37.87;101326.13;5038516;28;45297;-63
2022/08/26 10:26:50;;;;;;;;;11.67;10.00;;;;;29.28;37.46;101305.03;5038390;28;45490;-63
2022/08/26 10:29:23;;;;;;;;;7.67;7.00;;;;;29.26;36.67;101304.44;5038716;28;45534;-63
2022/08/26 10:31:59;;;;;;;;;10.67;10.33;;;;;29.22;37.10;101313.41;5038106;28;46788;-64
2022/08/26 10:34:24;;;;;;;;;6.00;6.00;;;;;29.19;37.42;101309.28;5038350;28;45245;-64
2022/08/26 10:37:00;;;;;;;;;8.67;8.67;;;;;28.69;37.19;101241.78;5035986;28;45555;-65
2022/08/26 10:39:35;;;;;;;;;11.00;10.00;;;;;29.11;37.31;101304.25;5038256;28;45305;-64
2022/08/26 10:42:12;;;;;;;;;12.67;12.67;;;;;28.98;37.37;101308.16;5037917;28;46256;-65
2022/08/26 10:44:40;;;;;;;;;10.00;9.33;;;;;28.84;37.47;101284.97;5038004;28;45318;-63
2022/08/26 10:47:15;;;;;;;;;7.00;7.00;;;;;29.08;37.57;101311.06;5038177;28;45352;-63
2022/08/26 10:49:43;;;;;;;;;7.33;7.00;;;;;29.17;37.51;101300.47;5038052;28;45538;-64
2022/08/26 10:52:17;;;;;;;;;7.33;7.33;;;;;29.15;37.41;101302.66;5037785;28;45869;-64
2022/08/26 10:55:22;;;;;;;;;9.00;9.00;;;;;29.01;37.54;101301.34;5037845;28;45499;-64
2022/08/26 10:58:05;;;;;;;;;14.67;13.33;;;;;28.85;37.56;101296.75;5035688;28;45334;-62
2022/08/26 11:03:57;;;;;;;;;9.00;9.00;;;;;28.36;38.87;101310.19;5037714;28;45310;-65
2022/08/26 11:06:26;;;;;;;;;10.00;10.00;;;;;28.11;39.51;101300.44;5036526;28;45417;-64
2022/08/26 11:08:57;;;;;;;;;12.33;12.33;;;;;26.89;39.48;101101.50;5037610;28;45338;-63
2022/08/26 11:11:40;;;;;;;;;12.67;11.33;;;;;27.65;40.17;101301.53;5037608;28;45521;-63
2022/08/26 11:14:07;;;;;;;;;12.33;10.00;;;;;27.67;40.60;101295.81;5037718;28;46611;-65
2022/08/26 11:16:32;;;;;;;;;11.00;11.00;;;;;27.55;40.51;101309.47;5037166;28;45289;-62
2022/08/26 11:18:58;;;;;;;;;13.33;12.33;;;;;27.55;40.02;101302.09;5036260;28;45291;-65
2022/08/26 11:21:45;;;;;;;;;7.33;7.33;;;;;27.59;39.70;101295.06;5038060;28;45428;-64
2022/08/26 11:24:38;;;;;;;;;9.00;9.00;;;;;27.37;39.06;101299.53;5037389;28;45779;-64
2022/08/26 11:27:03;;;;;;;;;7.67;7.67;;;;;27.30;39.15;101285.22;5037427;28;45351;-64
2022/08/26 11:29:55;;;;;;;;;7.00;7.00;;;;;27.23;38.39;101300.88;5037488;28;45477;-64